Danville Regional Airport
KDAN : now visible

Airfield :











YOU CAN JOIN US ON...

 
LOGIN :

Register | Disclaimer

   EN    FR    IT 

 









Legend :    VFR   Marginal VFR   IFR   Intensive IFR   Very Intensive IFR
Visi :
Ceiling :
>= 8 km
>= 3000ft
5 to 8 km
1000 to 3000 ft
1500m to 5 km
500 to 1000 ft
800 to 1500m
200 to 500 ft
< 800m
< 200 ft
Symbols :   Thunderstorms  Fog  Heavy snow  Heavy precipitations  Wind > 20 kt






- Airport Elevation : 571 ft
- IATA code : DAN


KDAN - Danville Regional

CURRENT METAR :
  • 242153Z AUTO 07005KT 10SM SCT035 OVC075 13/09 A2998 RMK AO2 SLP148 T01330094

EXPIRED METARs :
  • 242053Z AUTO 06007KT 10SM OVC031 14/09 A2999 RMK AO2 SLP151 T01390089 56037
  • 242040Z AUTO 08007KT 10SM OVC030 14/09 A3000 RMK AO2 T01390089
  • 241953Z AUTO 05006KT 10SM BKN029 OVC090 13/09 A3002 RMK AO2 SLP161 T01330089

TAF KDAN
Valid from the 24 at 21:00 until the 25 at 18:00 UTC


242121Z 2421/2518 07006KT P6SM VCSH SCT015 OVC035
TEMPO 2421/2423 BKN015
FM242300 10009G17KT 5SM -SHRA BR OVC015
FM250000 13007KT P6SM +SHRA OVC021 WS020/14040KT
FM250600 VRB02KT 5SM BR OVC015
FM250900 VRB02KT 6SM BR OVC008
FM251200 VRB02KT P6SM BKN035



MET'MAP, your aeronautical weather chart ! - Copyright ORBIFLY December 2007 - Disclaimer

ORBIFLY MET'MAP TEAM :

Programming & Development : Alexandra Zaïnal
Concept & original design : Baudouin d'Aumeries
Assistance for programming : Marc-Olivier Méhu
Technical & hardware support : Manuel Goepfert

Contact : metmap@orbifly.com




SOURCES & CREDITS :

   NOAA       Earth
Advisory